createdAt,value
2023-01-13T00:01:16.221Z,0.70
2023-01-13T00:04:17.842Z,0.70
2023-01-13T00:07:19.479Z,0.70
2023-01-13T00:10:21.143Z,0.70
2023-01-13T00:13:26.585Z,0.70
2023-01-13T00:16:28.350Z,1.13
2023-01-13T00:19:30.037Z,0.60
2023-01-13T00:22:36.247Z,0.70
2023-01-13T00:25:37.879Z,1.27
2023-01-13T00:28:39.729Z,0.83
2023-01-13T00:31:41.379Z,1.77
2023-01-13T00:34:43.011Z,1.13
2023-01-13T00:37:44.663Z,0.93
2023-01-13T00:41:19.622Z,0.90
2023-01-13T00:44:21.303Z,0.87
2023-01-13T00:47:23.414Z,1.60
2023-01-13T00:50:25.132Z,1.37
2023-01-13T00:53:27.466Z,0.90
2023-01-13T00:56:41.587Z,0.60
2023-01-13T00:59:43.230Z,1.10
2023-01-13T01:02:44.983Z,0.83
2023-01-13T01:05:46.723Z,1.40
2023-01-13T01:08:48.765Z,1.63
2023-01-13T01:11:50.406Z,0.80
2023-01-13T01:14:52.219Z,0.70
2023-01-13T01:17:53.926Z,2.53
2023-01-13T01:20:59.942Z,0.80
2023-01-13T01:24:03.740Z,0.70
2023-01-13T01:27:05.375Z,0.70
2023-01-13T01:30:08.069Z,0.60
2023-01-13T01:33:09.725Z,0.83
2023-01-13T01:36:12.641Z,0.60
2023-01-13T01:39:14.353Z,0.60
2023-01-13T01:46:49.066Z,1.17
2023-01-13T01:49:51.158Z,0.60
2023-01-13T01:53:00.776Z,1.10
2023-01-13T01:56:03.373Z,0.70
2023-01-13T01:59:05.127Z,0.77
2023-01-13T02:02:07.805Z,0.60
2023-01-13T02:05:09.794Z,0.90
2023-01-13T02:08:15.333Z,0.70
2023-01-13T02:11:50.240Z,0.43
2023-01-13T02:14:51.907Z,0.80
2023-01-13T02:18:05.499Z,0.50
2023-01-13T02:21:37.954Z,0.57
2023-01-13T02:24:53.819Z,1.17
2023-01-13T02:28:08.186Z,0.70
2023-01-13T02:31:33.392Z,0.60
2023-01-13T02:34:40.468Z,0.53
2023-01-13T02:37:43.732Z,0.50
2023-01-13T02:41:20.038Z,0.60
2023-01-13T02:44:28.447Z,0.60
2023-01-13T02:47:32.240Z,0.50
2023-01-13T02:50:44.515Z,0.50
2023-01-13T02:54:08.192Z,0.60
2023-01-13T02:57:12.112Z,0.40
2023-01-13T03:00:16.428Z,0.50
2023-01-13T03:03:18.392Z,0.60
2023-01-13T03:06:57.590Z,0.60
2023-01-13T03:10:22.016Z,0.60
2023-01-13T03:13:38.066Z,0.70
2023-01-13T03:16:54.726Z,0.60
2023-01-13T03:20:03.231Z,0.60
2023-01-13T03:23:13.266Z,0.50
2023-01-13T03:26:23.238Z,0.57
2023-01-13T03:29:36.851Z,0.77
2023-01-13T03:32:49.268Z,0.70
2023-01-13T03:35:54.929Z,1.50
2023-01-13T03:39:25.131Z,1.17
2023-01-13T03:42:30.603Z,0.90
2023-01-13T03:45:35.329Z,0.70
2023-01-13T03:48:43.643Z,2.57
2023-01-13T03:51:50.292Z,0.67
2023-01-13T03:55:02.803Z,1.50
2023-01-13T03:58:25.522Z,0.50
2023-01-13T04:01:35.235Z,1.23
2023-01-13T04:04:56.645Z,0.60
2023-01-13T04:08:12.437Z,0.70
2023-01-13T04:11:19.716Z,1.00
2023-01-13T04:14:23.328Z,1.53
2023-01-13T04:17:25.092Z,0.63
2023-01-13T04:20:26.787Z,1.03
2023-01-13T04:23:29.016Z,1.73
2023-01-13T04:26:30.722Z,2.07
2023-01-13T04:29:32.395Z,1.63
2023-01-13T04:32:34.096Z,1.50
2023-01-13T04:35:36.156Z,0.70
2023-01-13T04:38:37.793Z,0.80
2023-01-13T04:41:57.921Z,2.20
2023-01-13T04:44:59.579Z,1.60
2023-01-13T04:48:01.341Z,0.70
2023-01-13T04:51:03.056Z,0.73
2023-01-13T04:54:04.992Z,0.73
2023-01-13T04:57:09.440Z,1.13
2023-01-13T05:00:13.415Z,1.30
2023-01-13T05:03:15.151Z,2.80
2023-01-13T05:06:16.821Z,0.90
2023-01-13T05:09:18.492Z,2.07
2023-01-13T05:12:38.859Z,1.63
2023-01-13T05:16:03.613Z,1.97
2023-01-13T05:19:06.343Z,0.83
2023-01-13T05:22:26.567Z,1.00
2023-01-13T05:25:28.489Z,1.60
2023-01-13T05:28:34.038Z,1.67
2023-01-13T05:31:35.755Z,0.80
2023-01-13T05:34:37.577Z,1.13
2023-01-13T05:37:39.479Z,1.13
2023-01-13T05:41:00.982Z,0.90
2023-01-13T05:44:02.760Z,1.33
2023-01-13T05:47:04.468Z,2.97
2023-01-13T05:50:06.705Z,2.07
2023-01-13T05:53:08.388Z,1.23
2023-01-13T05:56:10.662Z,2.43
2023-01-13T05:59:12.406Z,1.50
2023-01-13T06:02:14.073Z,2.33
2023-01-13T06:05:15.877Z,0.77
2023-01-13T06:08:18.977Z,3.10
2023-01-13T06:11:20.742Z,1.73
2023-01-13T06:14:22.395Z,2.37
2023-01-13T06:17:24.143Z,2.37
2023-01-13T06:20:25.883Z,1.87
2023-01-13T06:23:28.273Z,1.60
2023-01-13T06:26:36.183Z,4.43
2023-01-13T06:29:37.974Z,1.33
2023-01-13T06:32:45.874Z,2.23
2023-01-13T06:35:55.083Z,1.70
2023-01-13T06:39:00.697Z,3.17
2023-01-13T06:42:22.414Z,1.33
2023-01-13T06:45:26.779Z,0.60
2023-01-13T06:48:37.717Z,2.73
2023-01-13T06:51:39.389Z,1.60
2023-01-13T06:54:41.051Z,1.40
2023-01-13T06:57:56.794Z,2.43
2023-01-13T07:01:01.913Z,1.73
2023-01-13T07:04:04.100Z,3.83
2023-01-13T07:07:05.885Z,1.77
2023-01-13T07:10:09.800Z,4.00
2023-01-13T07:13:30.232Z,3.37
2023-01-13T07:16:32.120Z,1.03
2023-01-13T07:19:33.907Z,1.50
2023-01-13T07:22:36.028Z,1.93
2023-01-13T07:25:37.707Z,3.40
2023-01-13T07:28:45.394Z,2.27
2023-01-13T07:31:49.985Z,1.77
2023-01-13T07:34:55.049Z,1.57
2023-01-13T07:37:59.762Z,2.43
2023-01-13T07:41:21.600Z,2.20
2023-01-13T07:44:23.554Z,3.90
2023-01-13T07:47:25.294Z,3.37
2023-01-13T07:50:26.993Z,2.60
2023-01-13T07:53:28.701Z,2.43
2023-01-13T07:56:39.493Z,3.33
2023-01-13T07:59:41.210Z,1.93
2023-01-13T08:02:43.678Z,3.33
2023-01-13T08:05:46.989Z,1.90
2023-01-13T08:08:53.728Z,2.03
2023-01-13T08:12:26.258Z,4.03
2023-01-13T08:15:29.684Z,5.40
2023-01-13T08:22:58.980Z,5.47
2023-01-13T08:26:25.563Z,3.50
2023-01-13T08:29:27.203Z,2.27
2023-01-13T08:32:28.923Z,4.20
2023-01-13T08:35:30.603Z,2.77
2023-01-13T08:38:34.427Z,2.33
2023-01-13T08:41:54.466Z,3.07
2023-01-13T08:44:56.385Z,6.27
2023-01-13T08:47:59.162Z,5.13
2023-01-13T08:51:09.019Z,2.17
2023-01-13T08:54:11.235Z,2.67
2023-01-13T08:57:13.868Z,2.93
2023-01-13T09:00:17.182Z,7.17
2023-01-13T09:03:18.993Z,2.60
2023-01-13T09:06:20.737Z,5.63
2023-01-13T09:09:23.687Z,1.77
2023-01-13T09:12:44.014Z,2.23
2023-01-13T09:15:46.139Z,3.80
2023-01-13T09:18:47.922Z,4.07
2023-01-13T09:21:49.584Z,5.10
2023-01-13T09:24:51.270Z,4.53
2023-01-13T09:27:52.927Z,4.43
2023-01-13T09:30:54.621Z,3.93
2023-01-13T09:34:14.775Z,6.73
2023-01-13T09:37:16.668Z,1.90
2023-01-13T09:40:22.619Z,4.37
2023-01-13T09:43:52.101Z,3.23
2023-01-13T09:46:59.671Z,5.57
2023-01-13T09:50:34.020Z,3.60
2023-01-13T09:53:40.513Z,5.93
2023-01-13T09:56:42.641Z,4.97
2023-01-13T09:59:47.138Z,3.90
2023-01-13T10:03:07.414Z,3.80
2023-01-13T10:06:24.451Z,5.10
2023-01-13T10:09:32.934Z,4.30
2023-01-13T10:12:53.398Z,4.83
2023-01-13T10:16:13.686Z,4.93
2023-01-13T10:19:24.235Z,4.47
2023-01-13T10:22:42.461Z,3.27
2023-01-13T10:26:36.106Z,6.53
2023-01-13T10:29:37.839Z,1.93
2023-01-13T10:33:13.016Z,2.93
2023-01-13T10:36:17.638Z,4.33
2023-01-13T10:39:21.332Z,5.30
2023-01-13T10:42:25.373Z,6.10
2023-01-13T10:45:27.299Z,5.23
2023-01-13T10:48:44.069Z,4.83
2023-01-13T10:51:49.365Z,3.77
2023-01-13T10:55:26.103Z,2.67
2023-01-13T10:58:28.591Z,5.00
2023-01-13T11:01:30.504Z,4.23
2023-01-13T11:04:36.837Z,3.53
2023-01-13T11:07:50.370Z,4.27
2023-01-13T11:10:55.487Z,4.37
2023-01-13T11:14:20.570Z,4.00
2023-01-13T11:17:45.571Z,4.10
2023-01-13T11:20:49.450Z,3.67
2023-01-13T11:24:20.368Z,5.37
2023-01-13T11:27:47.375Z,6.87
2023-01-13T11:30:57.710Z,4.13
2023-01-13T11:34:07.962Z,2.70
2023-01-13T11:37:26.360Z,3.30
2023-01-13T11:40:36.819Z,6.37
2023-01-13T11:43:48.032Z,4.80
2023-01-13T11:46:51.376Z,3.30
2023-01-13T11:49:53.308Z,3.53
2023-01-13T11:53:04.439Z,3.70
2023-01-13T11:56:24.965Z,3.10
2023-01-13T12:00:04.879Z,3.13
2023-01-13T12:03:09.671Z,2.23
2023-01-13T12:06:40.025Z,5.93
2023-01-13T12:09:54.515Z,3.23
2023-01-13T12:13:09.673Z,5.00
2023-01-13T12:16:15.330Z,4.70
2023-01-13T12:19:21.848Z,6.10
2023-01-13T12:22:29.895Z,5.57
2023-01-13T12:25:42.823Z,3.67
2023-01-13T12:28:56.376Z,5.73
2023-01-13T12:31:59.938Z,3.30
2023-01-13T12:35:33.768Z,4.43
2023-01-13T12:38:58.386Z,5.10
2023-01-13T12:42:25.447Z,5.97
2023-01-13T12:45:29.810Z,3.13
2023-01-13T12:49:04.593Z,9.80
2023-01-13T12:52:15.348Z,3.37
2023-01-13T12:55:23.491Z,6.00
2023-01-13T12:58:28.524Z,4.30
2023-01-13T13:01:36.129Z,5.67
2023-01-13T13:04:49.571Z,4.60
2023-01-13T13:08:21.270Z,3.70
2023-01-13T13:11:57.271Z,7.90
2023-01-13T13:15:21.076Z,8.77
2023-01-13T13:18:27.367Z,7.73
2023-01-13T13:22:07.735Z,5.83
2023-01-13T13:25:24.682Z,5.83
2023-01-13T13:28:27.160Z,8.67
2023-01-13T13:32:06.051Z,5.67
2023-01-13T13:35:34.564Z,3.33
2023-01-13T13:39:33.792Z,6.43
2023-01-13T13:43:01.326Z,5.07
2023-01-13T13:46:35.001Z,4.07
2023-01-13T13:49:46.754Z,5.17
2023-01-13T13:53:01.395Z,4.97
2023-01-13T13:56:07.394Z,3.73
2023-01-13T13:59:12.272Z,4.73
2023-01-13T14:02:26.720Z,5.57
2023-01-13T14:05:34.022Z,6.33
2023-01-13T14:08:46.662Z,7.23
2023-01-13T14:12:19.714Z,3.63
2023-01-13T14:15:27.689Z,9.37
2023-01-13T14:18:35.373Z,3.90
2023-01-13T14:21:37.035Z,7.20
2023-01-13T14:24:47.252Z,5.57
2023-01-13T14:27:49.205Z,5.67
2023-01-13T14:30:51.881Z,8.13
2023-01-13T14:33:59.266Z,4.40
2023-01-13T14:37:02.903Z,8.63
2023-01-13T14:40:05.352Z,3.57
2023-01-13T14:43:15.963Z,9.37
2023-01-13T14:46:21.084Z,7.53
2023-01-13T14:49:44.848Z,6.93
2023-01-13T14:52:49.499Z,9.00
2023-01-13T14:55:51.159Z,5.00
2023-01-13T14:58:52.872Z,5.27
2023-01-13T15:01:54.817Z,6.67
2023-01-13T15:04:59.209Z,5.90
2023-01-13T15:08:00.840Z,6.23
2023-01-13T15:11:08.249Z,5.70
2023-01-13T15:14:11.515Z,4.50
2023-01-13T15:17:16.992Z,6.87
2023-01-13T15:20:21.574Z,5.47
2023-01-13T15:23:23.355Z,5.07
2023-01-13T15:26:27.343Z,5.13
2023-01-13T15:29:29.265Z,8.07
2023-01-13T15:32:30.925Z,3.17
2023-01-13T15:35:33.857Z,2.70
2023-01-13T15:38:35.489Z,4.33
2023-01-13T15:41:55.677Z,4.50
2023-01-13T15:45:16.166Z,6.27
2023-01-13T15:48:20.407Z,6.93
2023-01-13T15:51:22.021Z,4.40
2023-01-13T15:54:24.626Z,5.03
2023-01-13T15:57:29.429Z,6.10
2023-01-13T16:00:31.189Z,5.10
2023-01-13T16:03:32.878Z,3.77
2023-01-13T16:06:36.137Z,6.20
2023-01-13T16:09:37.817Z,4.20
2023-01-13T16:12:39.485Z,3.23
2023-01-13T16:15:47.926Z,4.93
2023-01-13T16:18:51.107Z,3.10
2023-01-13T16:21:56.059Z,3.80
2023-01-13T16:24:57.787Z,5.40
2023-01-13T16:27:59.438Z,3.50
2023-01-13T16:31:32.292Z,3.83
2023-01-13T16:34:34.136Z,4.97
2023-01-13T16:37:35.771Z,3.60
2023-01-13T16:40:37.528Z,5.90
2023-01-13T16:43:39.246Z,4.73
2023-01-13T16:46:44.383Z,9.13
2023-01-13T16:49:46.380Z,6.47
2023-01-13T16:53:00.441Z,3.87
2023-01-13T16:56:02.181Z,6.47
2023-01-13T16:59:07.484Z,8.30
2023-01-13T17:02:14.703Z,4.27
2023-01-13T17:05:16.774Z,4.00
2023-01-13T17:08:18.949Z,3.80
2023-01-13T17:11:21.213Z,3.50
2023-01-13T17:14:24.106Z,4.43
2023-01-13T17:17:27.551Z,4.83
2023-01-13T17:20:29.264Z,3.57
2023-01-13T17:23:31.500Z,4.37
2023-01-13T17:26:37.282Z,6.77
2023-01-13T17:29:39.383Z,4.37
2023-01-13T17:32:41.567Z,4.47
2023-01-13T17:35:43.233Z,4.63
2023-01-13T17:38:44.916Z,4.63
2023-01-13T17:41:46.832Z,3.57
2023-01-13T17:44:48.552Z,3.30
2023-01-13T17:47:50.258Z,5.00
2023-01-13T17:50:52.329Z,5.10
2023-01-13T17:53:54.136Z,4.80
2023-01-13T17:56:57.979Z,5.10
2023-01-13T17:59:59.710Z,10.20
2023-01-13T18:03:01.447Z,4.20
2023-01-13T18:06:08.922Z,4.07
2023-01-13T18:09:11.270Z,4.73
2023-01-13T18:12:13.074Z,4.60
2023-01-13T18:15:17.688Z,4.43
2023-01-13T18:18:19.367Z,5.67
2023-01-13T18:21:44.835Z,3.97
2023-01-13T18:25:05.228Z,5.70
2023-01-13T18:28:06.934Z,4.27
2023-01-13T18:31:09.403Z,3.43
2023-01-13T18:34:14.579Z,3.70
2023-01-13T18:37:17.611Z,2.53
2023-01-13T18:40:19.353Z,6.47
2023-01-13T18:43:21.021Z,4.90
2023-01-13T18:46:22.698Z,4.27
2023-01-13T18:49:24.417Z,4.10
2023-01-13T18:52:27.148Z,4.80
2023-01-13T18:55:28.904Z,3.47
2023-01-13T18:58:32.944Z,4.77
2023-01-13T19:01:36.928Z,7.77
2023-01-13T19:04:38.912Z,6.53
2023-01-13T19:07:40.702Z,7.47
2023-01-13T19:10:42.386Z,4.97
2023-01-13T19:13:44.300Z,4.23
2023-01-13T19:16:45.937Z,5.03
2023-01-13T19:19:50.854Z,4.93
2023-01-13T19:22:54.465Z,5.07
2023-01-13T19:26:02.967Z,4.10
2023-01-13T19:29:04.804Z,7.07
2023-01-13T19:32:10.738Z,7.80
2023-01-13T19:35:17.120Z,5.13
2023-01-13T19:38:18.797Z,7.27
2023-01-13T19:41:40.810Z,4.70
2023-01-13T19:45:01.267Z,6.03
2023-01-13T19:48:07.096Z,3.00
2023-01-13T19:51:09.846Z,7.30
2023-01-13T19:54:13.707Z,4.03
2023-01-13T19:57:15.744Z,5.70
2023-01-13T20:00:20.648Z,5.03
2023-01-13T20:03:31.017Z,4.83
2023-01-13T20:06:32.844Z,4.97
2023-01-13T20:09:35.683Z,3.83
2023-01-13T20:12:37.353Z,2.67
2023-01-13T20:15:39.992Z,3.40
2023-01-13T20:18:41.741Z,5.00
2023-01-13T20:21:43.731Z,4.90
2023-01-13T20:24:45.444Z,4.10
2023-01-13T20:27:48.071Z,3.07
2023-01-13T20:30:50.424Z,4.77
2023-01-13T20:33:53.494Z,3.07
2023-01-13T20:36:55.203Z,4.93
2023-01-13T20:39:58.053Z,2.63
2023-01-13T20:42:59.776Z,6.10
2023-01-13T20:46:07.256Z,3.67
2023-01-13T20:49:13.456Z,4.30
2023-01-13T20:52:15.117Z,3.27
2023-01-13T20:55:16.996Z,6.07
2023-01-13T20:58:18.650Z,4.03
2023-01-13T21:01:20.457Z,4.27
2023-01-13T21:04:22.208Z,3.20
2023-01-13T21:07:24.081Z,3.33
2023-01-13T21:10:25.725Z,6.57
2023-01-13T21:13:48.919Z,4.17
2023-01-13T21:16:51.019Z,2.97
2023-01-13T21:19:52.671Z,3.57
2023-01-13T21:22:54.358Z,5.47
2023-01-13T21:25:56.025Z,3.67
2023-01-13T21:28:59.884Z,4.23
2023-01-13T21:32:01.651Z,6.63
2023-01-13T21:35:03.454Z,3.47
2023-01-13T21:38:05.123Z,4.30
2023-01-13T21:41:08.935Z,3.63
2023-01-13T21:44:39.237Z,4.43
2023-01-13T21:47:50.279Z,4.67
2023-01-13T21:50:52.143Z,6.07
2023-01-13T21:53:54.690Z,2.90
2023-01-13T21:56:56.480Z,4.70
2023-01-13T21:59:59.172Z,5.33
2023-01-13T22:03:04.155Z,3.40
2023-01-13T22:06:06.145Z,3.70
2023-01-13T22:09:07.830Z,4.17
2023-01-13T22:12:09.519Z,4.27
2023-01-13T22:15:13.445Z,3.93
2023-01-13T22:18:15.123Z,4.90
2023-01-13T22:21:17.911Z,4.60
2023-01-13T22:24:19.623Z,4.50
2023-01-13T22:27:26.338Z,5.17
2023-01-13T22:30:32.145Z,3.07
2023-01-13T22:33:33.814Z,2.40
2023-01-13T22:36:35.472Z,6.67
2023-01-13T22:39:37.458Z,4.67
2023-01-13T22:42:40.810Z,4.80
2023-01-13T22:45:42.534Z,7.40
2023-01-13T22:48:44.508Z,7.27
2023-01-13T22:51:46.498Z,5.13
2023-01-13T22:54:48.255Z,7.07
2023-01-13T22:57:49.891Z,3.63
2023-01-13T23:00:52.027Z,6.53
2023-01-13T23:03:54.181Z,4.40
2023-01-13T23:06:55.936Z,4.60
2023-01-13T23:09:57.566Z,5.33
2023-01-13T23:12:59.335Z,3.53
2023-01-13T23:16:08.672Z,4.83
2023-01-13T23:19:10.730Z,6.47
2023-01-13T23:22:13.390Z,5.20
2023-01-13T23:25:15.171Z,4.47
2023-01-13T23:28:17.258Z,5.83
2023-01-13T23:31:23.458Z,7.93
2023-01-13T23:37:46.844Z,7.23
2023-01-13T23:40:48.467Z,8.00
2023-01-13T23:43:58.554Z,5.17
2023-01-13T23:47:00.210Z,5.37
2023-01-13T23:50:01.851Z,7.27
2023-01-13T23:53:03.490Z,5.90
2023-01-13T23:56:08.445Z,7.63
2023-01-13T23:59:10.060Z,8.07
